LGX37B LFKJ-LIRA
Flight info
| Callsign | LGX37B |
|---|---|
| Flight time | 0h 37m |
| Altitude | 26000 |
| Route | BTA L146 MOULE/N0402F190 L146 ELKAP |
| Aircraft | B38M/M-SDE1FGHILORVWXY/HB1 |
Departure
| Time | 2026-05-06 16:17 |
|---|---|
| Airport | Ajaccio Napoléon Bonaparte airport (LFKJ) |
Arrival
| Time | 2026-05-06 16:54 |
|---|---|
| Airport | Ciampino–G. B. Pastine International Airport (LIRA) |
| Time | Latitude | Longitude | Altitude | Speed | Heading |
|---|---|---|---|---|---|
| 2026-05-06 16:12 | 41.91847 | 8.79505 | 25 ft | 0 kts | 346° |
| 2026-05-06 16:14 | 41.91875 | 8.79512 | 27 ft | 10 kts | 38° |
| 2026-05-06 16:14 | 41.91896 | 8.79600 | 27 ft | 11 kts | 39° |
| 2026-05-06 16:14 | 41.91995 | 8.79669 | 28 ft | 18 kts | 25° |
| 2026-05-06 16:15 | 41.92132 | 8.79752 | 28 ft | 25 kts | 24° |
| 2026-05-06 16:15 | 41.92291 | 8.79851 | 26 ft | 22 kts | 25° |
| 2026-05-06 16:15 | 41.92443 | 8.79947 | 30 ft | 26 kts | 25° |
| 2026-05-06 16:15 | 41.92619 | 8.80055 | 26 ft | 29 kts | 25° |
| 2026-05-06 16:16 | 41.92790 | 8.80183 | 26 ft | 28 kts | 41° |
| 2026-05-06 16:16 | 41.92779 | 8.80399 | 27 ft | 26 kts | 115° |
| 2026-05-06 16:16 | 41.92620 | 8.80388 | 27 ft | 47 kts | 206° |
| 2026-05-06 16:16 | 41.92096 | 8.80066 | 21 ft | 116 kts | 205° |
| 2026-05-06 16:17 | 41.91217 | 8.79509 | 255 ft | 150 kts | 205° |
| 2026-05-06 16:17 | 41.90286 | 8.78948 | 1152 ft | 142 kts | 205° |
| 2026-05-06 16:17 | 41.89507 | 8.78076 | 1747 ft | 162 kts | 237° |
| 2026-05-06 16:17 | 41.89300 | 8.76543 | 2352 ft | 178 kts | 279° |
| 2026-05-06 16:18 | 41.89970 | 8.75099 | 2974 ft | 195 kts | 325° |
| 2026-05-06 16:18 | 41.91318 | 8.74693 | 3647 ft | 211 kts | 11° |
| 2026-05-06 16:18 | 41.92650 | 8.75602 | 4482 ft | 225 kts | 39° |
| 2026-05-06 16:18 | 41.93821 | 8.77102 | 5267 ft | 241 kts | 46° |
| 2026-05-06 16:19 | 41.95047 | 8.78765 | 6023 ft | 259 kts | 44° |
| 2026-05-06 16:19 | 41.96432 | 8.80446 | 6760 ft | 277 kts | 42° |
| 2026-05-06 16:19 | 41.97663 | 8.82484 | 7686 ft | 285 kts | 55° |
| 2026-05-06 16:19 | 41.98792 | 8.84681 | 8654 ft | 291 kts | 56° |
| 2026-05-06 16:20 | 41.99918 | 8.86975 | 9614 ft | 297 kts | 57° |
| 2026-05-06 16:20 | 42.01059 | 8.89340 | 10450 ft | 309 kts | 57° |
| 2026-05-06 16:20 | 42.02268 | 8.91833 | 11017 ft | 327 kts | 57° |
| 2026-05-06 16:20 | 42.03558 | 8.94468 | 11549 ft | 345 kts | 57° |
| 2026-05-06 16:21 | 42.04916 | 8.97228 | 12019 ft | 363 kts | 57° |
| 2026-05-06 16:21 | 42.06337 | 9.00117 | 12583 ft | 376 kts | 57° |
| 2026-05-06 16:21 | 42.07789 | 9.03078 | 13351 ft | 382 kts | 57° |
| 2026-05-06 16:21 | 42.09262 | 9.06091 | 14137 ft | 387 kts | 57° |
| 2026-05-06 16:22 | 42.10751 | 9.09146 | 14927 ft | 392 kts | 57° |
| 2026-05-06 16:22 | 42.12259 | 9.12237 | 15679 ft | 397 kts | 57° |
| 2026-05-06 16:22 | 42.13786 | 9.15367 | 16397 ft | 402 kts | 57° |
| 2026-05-06 16:22 | 42.15316 | 9.18505 | 17060 ft | 407 kts | 57° |
| 2026-05-06 16:23 | 42.16878 | 9.21715 | 17745 ft | 411 kts | 57° |
| 2026-05-06 16:23 | 42.18451 | 9.24953 | 18386 ft | 415 kts | 57° |
| 2026-05-06 16:23 | 42.20039 | 9.28226 | 18998 ft | 419 kts | 57° |
| 2026-05-06 16:23 | 42.21643 | 9.31535 | 19594 ft | 424 kts | 57° |
| 2026-05-06 16:24 | 42.23265 | 9.34882 | 20196 ft | 428 kts | 57° |
| 2026-05-06 16:24 | 42.24898 | 9.38256 | 20763 ft | 431 kts | 57° |
| 2026-05-06 16:24 | 42.26544 | 9.41663 | 21300 ft | 435 kts | 58° |
| 2026-05-06 16:24 | 42.28204 | 9.45103 | 21826 ft | 439 kts | 57° |
| 2026-05-06 16:25 | 42.29880 | 9.48579 | 22342 ft | 443 kts | 57° |
| 2026-05-06 16:25 | 42.31567 | 9.52075 | 22850 ft | 446 kts | 57° |
| 2026-05-06 16:25 | 42.33267 | 9.55606 | 23350 ft | 450 kts | 57° |
| 2026-05-06 16:25 | 42.34977 | 9.59167 | 23838 ft | 453 kts | 58° |
| 2026-05-06 16:26 | 42.36698 | 9.62760 | 24306 ft | 457 kts | 57° |
| 2026-05-06 16:26 | 42.37850 | 9.65162 | 24628 ft | 460 kts | 57° |
| 2026-05-06 16:26 | 42.39601 | 9.68816 | 25098 ft | 463 kts | 57° |
| 2026-05-06 16:26 | 42.41932 | 9.73686 | 25684 ft | 467 kts | 57° |
| 2026-05-06 16:27 | 42.43705 | 9.77398 | 25913 ft | 474 kts | 57° |
| 2026-05-06 16:27 | 42.44920 | 9.79945 | 25918 ft | 479 kts | 57° |
| 2026-05-06 16:27 | 42.46737 | 9.83759 | 25922 ft | 485 kts | 57° |
| 2026-05-06 16:27 | 42.48574 | 9.87620 | 25929 ft | 490 kts | 57° |
| 2026-05-06 16:28 | 42.50407 | 9.91476 | 25929 ft | 495 kts | 57° |
| 2026-05-06 16:28 | 42.52273 | 9.95405 | 25931 ft | 497 kts | 57° |
| 2026-05-06 16:28 | 42.54144 | 9.99349 | 25928 ft | 496 kts | 57° |
| 2026-05-06 16:28 | 42.56009 | 10.03286 | 25932 ft | 495 kts | 57° |
| 2026-05-06 16:29 | 42.57861 | 10.07206 | 25938 ft | 493 kts | 57° |
| 2026-05-06 16:29 | 42.59711 | 10.11126 | 25939 ft | 493 kts | 57° |
| 2026-05-06 16:29 | 42.61561 | 10.15045 | 25938 ft | 493 kts | 57° |
| 2026-05-06 16:29 | 42.63410 | 10.18973 | 25938 ft | 493 kts | 57° |
| 2026-05-06 16:30 | 42.65256 | 10.22898 | 25943 ft | 493 kts | 58° |
| 2026-05-06 16:30 | 42.66477 | 10.25498 | 25946 ft | 493 kts | 58° |
| 2026-05-06 16:30 | 42.68949 | 10.30766 | 25946 ft | 494 kts | 58° |
| 2026-05-06 16:30 | 42.70724 | 10.34749 | 25944 ft | 493 kts | 63° |
| 2026-05-06 16:31 | 42.72017 | 10.39060 | 25955 ft | 492 kts | 74° |
| 2026-05-06 16:31 | 42.72703 | 10.43603 | 25960 ft | 490 kts | 85° |
| 2026-05-06 16:31 | 42.72926 | 10.48218 | 25961 ft | 489 kts | 90° |
| 2026-05-06 16:31 | 42.72839 | 10.52827 | 25960 ft | 487 kts | 96° |
| 2026-05-06 16:32 | 42.72497 | 10.57404 | 25959 ft | 486 kts | 99° |
| 2026-05-06 16:32 | 42.71878 | 10.61912 | 25957 ft | 484 kts | 107° |
| 2026-05-06 16:32 | 42.70860 | 10.66192 | 25958 ft | 481 kts | 114° |
| 2026-05-06 16:32 | 42.69492 | 10.70034 | 25954 ft | 462 kts | 122° |
| 2026-05-06 16:33 | 42.67925 | 10.73723 | 25951 ft | 440 kts | 123° |
| 2026-05-06 16:33 | 42.66332 | 10.77227 | 25954 ft | 437 kts | 126° |
| 2026-05-06 16:33 | 42.64676 | 10.80698 | 25960 ft | 446 kts | 126° |
| 2026-05-06 16:34 | 42.61426 | 10.87621 | 25954 ft | 449 kts | 124° |
| 2026-05-06 16:34 | 42.59793 | 10.91226 | 25957 ft | 449 kts | 124° |
| 2026-05-06 16:34 | 42.58158 | 10.94834 | 25959 ft | 448 kts | 125° |
| 2026-05-06 16:34 | 42.56508 | 10.98431 | 25954 ft | 450 kts | 125° |
| 2026-05-06 16:35 | 42.54834 | 11.02023 | 25919 ft | 452 kts | 125° |
| 2026-05-06 16:35 | 42.53158 | 11.05624 | 25648 ft | 447 kts | 125° |
| 2026-05-06 16:35 | 42.51519 | 11.09165 | 25399 ft | 442 kts | 125° |
| 2026-05-06 16:35 | 42.49882 | 11.12704 | 25149 ft | 441 kts | 124° |
| 2026-05-06 16:36 | 42.48598 | 11.16424 | 24904 ft | 444 kts | 109° |
| 2026-05-06 16:36 | 42.48050 | 11.20553 | 24671 ft | 446 kts | 99° |
| 2026-05-06 16:36 | 42.47730 | 11.24679 | 24427 ft | 444 kts | 96° |
| 2026-05-06 16:36 | 42.47537 | 11.28855 | 24178 ft | 444 kts | 95° |
| 2026-05-06 16:37 | 42.47041 | 11.32944 | 23921 ft | 437 kts | 110° |
| 2026-05-06 16:37 | 42.45792 | 11.36654 | 23696 ft | 432 kts | 120° |
| 2026-05-06 16:37 | 42.44327 | 11.40232 | 23037 ft | 436 kts | 122° |
| 2026-05-06 16:37 | 42.42751 | 11.43728 | 22278 ft | 432 kts | 124° |
| 2026-05-06 16:38 | 42.41144 | 11.47134 | 21531 ft | 427 kts | 125° |
| 2026-05-06 16:38 | 42.39575 | 11.50510 | 20778 ft | 421 kts | 124° |
| 2026-05-06 16:38 | 42.38067 | 11.53873 | 20040 ft | 416 kts | 123° |
| 2026-05-06 16:38 | 42.36600 | 11.57215 | 19201 ft | 410 kts | 123° |
| 2026-05-06 16:39 | 42.35119 | 11.60565 | 17948 ft | 418 kts | 123° |
| 2026-05-06 16:39 | 42.33604 | 11.63939 | 16704 ft | 422 kts | 123° |
| 2026-05-06 16:39 | 42.32065 | 11.67332 | 15467 ft | 425 kts | 123° |
| 2026-05-06 16:39 | 42.30532 | 11.70716 | 14578 ft | 413 kts | 123° |
| 2026-05-06 16:40 | 42.29097 | 11.73969 | 13841 ft | 394 kts | 118° |
| 2026-05-06 16:40 | 42.28245 | 11.77392 | 13239 ft | 376 kts | 105° |
| 2026-05-06 16:40 | 42.27654 | 11.80777 | 12540 ft | 364 kts | 104° |
| 2026-05-06 16:40 | 42.27092 | 11.84058 | 11839 ft | 353 kts | 104° |
| 2026-05-06 16:41 | 42.26542 | 11.87251 | 11144 ft | 344 kts | 104° |
| 2026-05-06 16:41 | 42.26007 | 11.90363 | 10445 ft | 336 kts | 104° |
| 2026-05-06 16:41 | 42.25499 | 11.93324 | 9970 ft | 319 kts | 104° |
| 2026-05-06 16:41 | 42.25013 | 11.96175 | 9467 ft | 305 kts | 104° |
| 2026-05-06 16:42 | 42.24548 | 11.98921 | 8969 ft | 294 kts | 104° |
| 2026-05-06 16:42 | 42.24099 | 12.01575 | 8467 ft | 285 kts | 104° |
| 2026-05-06 16:42 | 42.23663 | 12.04151 | 7986 ft | 278 kts | 104° |
| 2026-05-06 16:42 | 42.23235 | 12.06661 | 7479 ft | 272 kts | 104° |
| 2026-05-06 16:43 | 42.22815 | 12.09129 | 6975 ft | 267 kts | 104° |
| 2026-05-06 16:43 | 42.22398 | 12.11553 | 6460 ft | 263 kts | 104° |
| 2026-05-06 16:43 | 42.21986 | 12.13939 | 6038 ft | 260 kts | 104° |
| 2026-05-06 16:43 | 42.21569 | 12.16344 | 6002 ft | 262 kts | 104° |
| 2026-05-06 16:44 | 42.21157 | 12.18704 | 5993 ft | 258 kts | 104° |
| 2026-05-06 16:44 | 42.20754 | 12.21041 | 5983 ft | 250 kts | 103° |
| 2026-05-06 16:44 | 42.20360 | 12.23324 | 5980 ft | 247 kts | 104° |
| 2026-05-06 16:44 | 42.19978 | 12.25537 | 5986 ft | 239 kts | 104° |
| 2026-05-06 16:45 | 42.19602 | 12.27705 | 5988 ft | 233 kts | 104° |
| 2026-05-06 16:45 | 42.19236 | 12.29827 | 5995 ft | 229 kts | 104° |
| 2026-05-06 16:45 | 42.18881 | 12.31889 | 5997 ft | 229 kts | 104° |
| 2026-05-06 16:45 | 42.18518 | 12.33994 | 5948 ft | 229 kts | 104° |
| 2026-05-06 16:46 | 42.18155 | 12.36100 | 5574 ft | 237 kts | 104° |
| 2026-05-06 16:46 | 42.17778 | 12.38277 | 5202 ft | 240 kts | 104° |
| 2026-05-06 16:46 | 42.17187 | 12.40351 | 5011 ft | 232 kts | 127° |
| 2026-05-06 16:46 | 42.15968 | 12.41702 | 4992 ft | 226 kts | 158° |
| 2026-05-06 16:47 | 42.14490 | 12.42317 | 4989 ft | 222 kts | 165° |
| 2026-05-06 16:47 | 42.13026 | 12.42833 | 4989 ft | 217 kts | 166° |
| 2026-05-06 16:47 | 42.11565 | 12.43332 | 4986 ft | 214 kts | 166° |
| 2026-05-06 16:47 | 42.10111 | 12.43836 | 4985 ft | 216 kts | 166° |
| 2026-05-06 16:48 | 42.08666 | 12.44345 | 4995 ft | 216 kts | 166° |
| 2026-05-06 16:48 | 42.07219 | 12.44858 | 4988 ft | 214 kts | 166° |
| 2026-05-06 16:48 | 42.05771 | 12.45372 | 4989 ft | 215 kts | 166° |
| 2026-05-06 16:48 | 42.04328 | 12.45883 | 4990 ft | 215 kts | 166° |
| 2026-05-06 16:49 | 42.02884 | 12.46395 | 4976 ft | 214 kts | 166° |
| 2026-05-06 16:49 | 42.01387 | 12.46927 | 4499 ft | 228 kts | 166° |
| 2026-05-06 16:49 | 41.99814 | 12.47481 | 3998 ft | 239 kts | 166° |
| 2026-05-06 16:49 | 41.98197 | 12.48048 | 3515 ft | 246 kts | 166° |
| 2026-05-06 16:50 | 41.96518 | 12.48639 | 3049 ft | 252 kts | 166° |
| 2026-05-06 16:50 | 41.94878 | 12.49251 | 3002 ft | 234 kts | 161° |
| 2026-05-06 16:50 | 41.93409 | 12.50121 | 2986 ft | 226 kts | 154° |
| 2026-05-06 16:50 | 41.92029 | 12.51080 | 2818 ft | 225 kts | 153° |
| 2026-05-06 16:51 | 41.90700 | 12.52011 | 2524 ft | 204 kts | 153° |
| 2026-05-06 16:51 | 41.89509 | 12.52841 | 2280 ft | 182 kts | 153° |
| 2026-05-06 16:51 | 41.88440 | 12.53584 | 2062 ft | 167 kts | 153° |
| 2026-05-06 16:51 | 41.87427 | 12.54286 | 1840 ft | 159 kts | 153° |
| 2026-05-06 16:52 | 41.86457 | 12.54980 | 1469 ft | 154 kts | 152° |
| 2026-05-06 16:52 | 41.85548 | 12.55659 | 1243 ft | 147 kts | 153° |
| 2026-05-06 16:52 | 41.84633 | 12.56275 | 1158 ft | 146 kts | 156° |
| 2026-05-06 16:52 | 41.83715 | 12.56876 | 1016 ft | 145 kts | 154° |
| 2026-05-06 16:53 | 41.82818 | 12.57499 | 889 ft | 144 kts | 153° |
| 2026-05-06 16:53 | 41.81927 | 12.58127 | 714 ft | 145 kts | 154° |
| 2026-05-06 16:53 | 41.81026 | 12.58727 | 501 ft | 144 kts | 153° |
| 2026-05-06 16:53 | 41.80162 | 12.59331 | 417 ft | 129 kts | 154° |
| 2026-05-06 16:54 | 41.79434 | 12.59831 | 409 ft | 101 kts | 153° |
| 2026-05-06 16:54 | 41.79095 | 12.60050 | 414 ft | 22 kts | 186° |
| 2026-05-06 16:54 | 41.79043 | 12.59914 | 406 ft | 21 kts | 299° |
| 2026-05-06 16:54 | 41.79165 | 12.59811 | 406 ft | 21 kts | 332° |
| 2026-05-06 16:55 | 41.79293 | 12.59722 | 406 ft | 21 kts | 333° |
| 2026-05-06 16:55 | 41.79425 | 12.59632 | 406 ft | 21 kts | 333° |
| 2026-05-06 16:55 | 41.79559 | 12.59540 | 403 ft | 22 kts | 333° |
| 2026-05-06 16:55 | 41.79694 | 12.59448 | 406 ft | 22 kts | 333° |
| 2026-05-06 16:56 | 41.79831 | 12.59354 | 406 ft | 22 kts | 333° |
| 2026-05-06 16:56 | 41.79969 | 12.59260 | 406 ft | 22 kts | 333° |
| 2026-05-06 16:56 | 41.80107 | 12.59165 | 406 ft | 22 kts | 333° |
| 2026-05-06 16:56 | 41.80247 | 12.59070 | 406 ft | 23 kts | 333° |
| 2026-05-06 16:57 | 41.80218 | 12.58986 | 405 ft | 17 kts | 168° |
| 2026-05-06 16:57 | 41.80110 | 12.58972 | 405 ft | 15 kts | 156° |
| 2026-05-06 16:57 | 41.80069 | 12.59023 | 405 ft | 0 kts | 123° |